All Spectrum Aviation - Van Nuys Airport - KVNY

HOME

Van Nuys Tower Recordings

Condor Squadron KVNY Webcam

Visit our Electronics Store

Condor Squadron Webcam - Van Nuys Airport - KVNY
Picture taken: Sat, 21 Apr 2018 12:19:40 -0700
YouTube Channel!    Latest Timelapse Movie    Full Size Image    Regular Size Image    

2018/04/21 18:51 KVNY 211851Z VRB03KT 10SM CLR 29/03 A3003 RMK AO2 SLP162 T02890033

HOME

Van Nuys Tower Recordings

Condor Squadron KVNY Webcam

Visit our Electronics Store